createdAt,value
2018-11-01T00:04:23.414Z,101429.69
2018-11-01T00:09:26.933Z,101423.77
2018-11-01T00:14:30.697Z,101415.46
2018-11-01T00:19:33.869Z,101402.53
2018-11-01T00:24:37.052Z,101399.59
2018-11-01T00:29:40.194Z,101401.30
2018-11-01T00:34:43.393Z,101392.05
2018-11-01T00:39:46.642Z,101401.55
2018-11-01T00:44:49.893Z,101407.89
2018-11-01T00:49:53.152Z,101395.41
2018-11-01T00:54:56.450Z,101391.64
2018-11-01T00:59:59.768Z,101388.91
2018-11-01T01:05:03.148Z,101403.61
2018-11-01T01:10:09.180Z,101392.80
2018-11-01T01:15:12.242Z,101387.80
2018-11-01T01:20:15.527Z,101380.67
2018-11-01T01:25:18.973Z,101362.95
2018-11-01T01:30:22.183Z,101356.26
2018-11-01T01:35:25.388Z,101345.34
2018-11-01T01:40:28.652Z,101354.38
2018-11-01T01:45:31.873Z,101358.15
2018-11-01T01:50:35.179Z,101357.85
2018-11-01T01:55:38.280Z,101351.55
2018-11-01T02:00:42.149Z,101349.49
2018-11-01T02:05:45.366Z,101336.30
2018-11-01T02:10:48.599Z,101324.66
2018-11-01T02:15:51.830Z,101327.74
2018-11-01T02:20:54.994Z,101324.44
2018-11-01T02:25:58.132Z,101315.41
2018-11-01T02:31:01.351Z,101299.50
2018-11-01T02:36:04.887Z,101293.02
2018-11-01T02:41:08.089Z,101287.73
2018-11-01T02:46:11.280Z,101279.93
2018-11-01T02:51:14.933Z,101272.30
2018-11-01T02:56:18.095Z,101266.38
2018-11-01T03:01:21.585Z,101270.43
2018-11-01T03:06:24.821Z,101284.92
2018-11-01T03:11:28.037Z,101291.41
2018-11-01T03:16:31.279Z,101288.95
2018-11-01T03:21:34.469Z,101259.89
2018-11-01T03:26:37.715Z,101267.02
2018-11-01T03:31:40.749Z,101261.39
2018-11-01T03:36:43.909Z,101246.04
2018-11-01T03:41:47.220Z,101243.11
2018-11-01T03:46:50.549Z,101245.46
2018-11-01T03:51:53.831Z,101241.89
2018-11-01T03:56:57.819Z,101224.02
2018-11-01T04:02:01.408Z,101217.63
2018-11-01T04:07:04.684Z,101209.14
2018-11-01T04:12:07.959Z,101197.28
2018-11-01T04:17:11.262Z,101206.51
2018-11-01T04:22:14.340Z,101215.88
2018-11-01T04:27:17.555Z,101210.52
2018-11-01T04:32:20.805Z,101210.64
2018-11-01T04:37:24.032Z,101201.00
2018-11-01T04:42:27.189Z,101201.38
2018-11-01T04:47:30.928Z,101212.72
2018-11-01T04:52:34.079Z,101201.52
2018-11-01T04:57:37.278Z,101201.41
2018-11-01T05:02:40.554Z,101182.87
2018-11-01T05:07:43.742Z,101181.64
2018-11-01T05:12:46.982Z,101185.56
2018-11-01T05:17:50.155Z,101193.67
2018-11-01T05:22:53.376Z,101205.95
2018-11-01T05:27:56.651Z,101227.13
2018-11-01T05:32:59.814Z,101236.07
2018-11-01T05:38:02.965Z,101211.33
2018-11-01T05:43:06.108Z,101197.02
2018-11-01T05:48:09.612Z,101177.98
2018-11-01T05:53:13.302Z,101165.73
2018-11-01T05:58:16.519Z,101146.91
2018-11-01T06:03:19.772Z,101149.75
2018-11-01T06:08:22.978Z,101160.20
2018-11-01T06:13:43.124Z,101159.19
2018-11-01T06:18:48.142Z,101144.39
2018-11-01T06:23:52.068Z,101139.84
2018-11-01T06:28:55.291Z,101143.03
2018-11-01T06:33:58.512Z,101157.40
2018-11-01T06:39:01.808Z,101144.42
2018-11-01T06:44:05.075Z,101130.09
2018-11-01T06:49:08.344Z,101131.25
2018-11-01T06:54:11.518Z,101118.52
2018-11-01T06:59:14.990Z,101132.97
2018-11-01T07:04:18.736Z,101129.53
2018-11-01T07:09:22.009Z,101111.55
2018-11-01T07:14:25.347Z,101108.92
2018-11-01T07:19:28.792Z,101115.66
2018-11-01T07:24:32.052Z,101141.20
2018-11-01T07:29:35.324Z,101132.71
2018-11-01T07:34:38.498Z,101122.48
2018-11-01T07:39:41.829Z,101111.59
2018-11-01T07:44:45.133Z,101091.80
2018-11-01T07:49:48.405Z,101063.84
2018-11-01T07:54:51.813Z,101074.86
2018-11-01T07:59:55.108Z,101041.13
2018-11-01T08:04:58.310Z,101054.75
2018-11-01T08:10:11.647Z,101045.44
2018-11-01T08:15:16.332Z,101040.27
2018-11-01T08:20:19.727Z,101036.34
2018-11-01T08:25:28.482Z,101045.72
2018-11-01T08:30:31.766Z,101030.42
2018-11-01T08:35:35.116Z,101032.75
2018-11-01T08:40:44.117Z,101029.72
2018-11-01T08:45:47.614Z,101048.11
2018-11-01T08:50:56.552Z,101042.66
2018-11-01T08:56:00.723Z,101012.09
2018-11-01T09:01:04.152Z,101001.63
2018-11-01T09:06:07.408Z,101023.63
2018-11-01T09:11:16.676Z,101033.34
2018-11-01T09:16:25.281Z,101018.78
2018-11-01T09:21:34.162Z,101026.80
2018-11-01T09:26:37.428Z,101027.00
2018-11-01T09:31:40.654Z,101017.28
2018-11-01T09:36:45.127Z,101020.83
2018-11-01T09:41:48.342Z,101016.56
2018-11-01T09:46:52.265Z,100988.70
2018-11-01T09:51:55.331Z,100991.88
2018-11-01T09:56:58.659Z,100983.39
2018-11-01T10:02:02.170Z,100993.36
2018-11-01T10:07:05.771Z,100984.39
2018-11-01T10:12:08.954Z,100977.84
2018-11-01T10:17:12.478Z,100975.48
2018-11-01T10:22:15.855Z,100972.33
2018-11-01T10:27:20.069Z,100965.77
2018-11-01T10:32:23.157Z,100935.59
2018-11-01T10:37:26.444Z,100933.41
2018-11-01T10:42:29.662Z,100924.48
2018-11-01T10:47:32.993Z,100929.98
2018-11-01T10:52:36.411Z,100926.69
2018-11-01T10:57:39.620Z,100920.58
2018-11-01T11:02:43.146Z,100895.35
2018-11-01T11:07:46.538Z,100888.86
2018-11-01T11:12:49.824Z,100879.37
2018-11-01T11:17:52.958Z,100892.75
2018-11-01T11:22:56.337Z,100890.27
2018-11-01T11:33:09.419Z,100874.97
2018-11-01T11:38:12.914Z,100876.97
2018-11-01T11:43:16.384Z,100875.72
2018-11-01T11:48:19.713Z,100867.32
2018-11-01T11:53:23.161Z,100872.67
2018-11-01T11:58:26.503Z,100872.33
2018-11-01T12:03:29.848Z,100869.08
2018-11-01T12:08:33.320Z,100863.03
2018-11-01T12:13:36.520Z,100868.73
2018-11-01T12:18:39.852Z,100874.28
2018-11-01T12:23:43.062Z,100869.05
2018-11-01T12:28:46.569Z,100867.77
2018-11-01T12:33:50.045Z,100866.15
2018-11-01T12:38:54.411Z,100862.98
2018-11-01T12:43:57.603Z,100877.86
2018-11-01T12:49:01.126Z,100854.34
2018-11-01T12:54:04.556Z,100841.79
2018-11-01T12:59:07.750Z,100833.33
2018-11-01T13:04:11.016Z,100829.47
2018-11-01T13:09:14.298Z,100814.38
2018-11-01T13:14:17.589Z,100806.52
2018-11-01T13:19:20.871Z,100782.70
2018-11-01T13:24:24.065Z,100779.14
2018-11-01T13:29:29.037Z,100763.03
2018-11-01T13:34:32.121Z,100760.05
2018-11-01T13:39:37.325Z,100739.43
2018-11-01T13:44:40.645Z,100740.97
2018-11-01T13:49:44.150Z,100754.41
2018-11-01T13:54:47.416Z,100758.09
2018-11-01T13:59:50.675Z,100761.25
2018-11-01T14:04:53.888Z,100765.44
2018-11-01T14:09:57.101Z,100759.01
2018-11-01T14:15:00.602Z,100745.27
2018-11-01T14:20:03.560Z,100723.56
2018-11-01T14:25:07.552Z,100747.42
2018-11-01T14:30:11.606Z,100760.20
2018-11-01T14:35:15.042Z,100767.75
2018-11-01T14:40:18.356Z,100776.47
2018-11-01T14:45:21.643Z,100754.05
2018-11-01T14:50:24.843Z,100778.02
2018-11-01T14:55:29.946Z,100788.12
2018-11-01T15:00:31.551Z,100770.89
2018-11-01T15:05:34.776Z,100746.80
2018-11-01T15:10:37.985Z,100747.16
2018-11-01T15:15:41.198Z,100755.89
2018-11-01T15:20:44.654Z,100721.92
2018-11-01T15:25:47.810Z,100705.70
2018-11-01T15:30:51.196Z,100719.40
2018-11-01T15:35:54.620Z,100706.84
2018-11-01T15:40:59.167Z,100729.59
2018-11-01T15:46:02.359Z,100720.01
2018-11-01T15:51:06.744Z,100714.80
2018-11-01T15:56:10.321Z,100723.12
2018-11-01T16:01:13.601Z,100720.69
2018-11-01T16:06:17.009Z,100711.98
2018-11-01T16:11:20.899Z,100720.91
2018-11-01T16:16:24.232Z,100712.84
2018-11-01T16:21:27.367Z,100730.97
2018-11-01T16:26:30.527Z,100726.92
2018-11-01T16:31:36.121Z,100718.01
2018-11-01T16:36:40.012Z,100737.41
2018-11-01T16:41:43.175Z,100721.81
2018-11-01T16:46:46.576Z,100733.41
2018-11-01T16:51:49.830Z,100725.99
2018-11-01T16:56:53.018Z,100717.45
2018-11-01T17:01:57.180Z,100717.77
2018-11-01T17:07:00.600Z,100721.18
2018-11-01T17:12:04.420Z,100714.84
2018-11-01T17:17:07.610Z,100724.31
2018-11-01T17:22:10.960Z,100724.66
2018-11-01T17:27:14.359Z,100727.92
2018-11-01T17:32:17.616Z,100732.07
2018-11-01T17:37:21.018Z,100730.81
2018-11-01T17:42:24.256Z,100736.53
2018-11-01T17:47:27.572Z,100728.73
2018-11-01T17:52:30.834Z,100741.94
2018-11-01T17:57:34.106Z,100742.93
2018-11-01T18:02:37.646Z,100733.97
2018-11-01T18:07:40.908Z,100730.20
2018-11-01T18:12:44.367Z,100740.45
2018-11-01T18:17:47.578Z,100734.69
2018-11-01T18:22:51.238Z,100721.91
2018-11-01T18:27:54.549Z,100707.34
2018-11-01T18:32:57.967Z,100701.19
2018-11-01T18:38:01.075Z,100693.38
2018-11-01T18:43:04.820Z,100703.28
2018-11-01T18:48:08.298Z,100710.92
2018-11-01T18:53:12.062Z,100704.14
2018-11-01T18:58:15.345Z,100708.46
2018-11-01T19:03:18.588Z,100704.61
2018-11-01T19:08:22.258Z,100717.06
2018-11-01T19:13:25.673Z,100734.41
2018-11-01T19:18:28.994Z,100736.00
2018-11-01T19:23:32.193Z,100732.68
2018-11-01T19:28:35.517Z,100741.37
2018-11-01T19:33:38.824Z,100733.40
2018-11-01T19:38:42.088Z,100747.78
2018-11-01T19:43:45.458Z,100748.50
2018-11-01T19:48:49.284Z,100758.13
2018-11-01T19:53:52.729Z,100775.98
2018-11-01T19:58:55.997Z,100776.59
2018-11-01T20:03:59.888Z,100789.27
2018-11-01T20:09:04.167Z,100803.31
2018-11-01T20:14:07.359Z,100806.45
2018-11-01T20:19:11.053Z,100826.94
2018-11-01T20:24:14.341Z,100835.98
2018-11-01T20:29:19.570Z,100827.33
2018-11-01T20:34:25.092Z,100826.26
2018-11-01T20:39:30.494Z,100834.73
2018-11-01T20:44:35.237Z,100857.55
2018-11-01T20:49:39.843Z,100858.30
2018-11-01T20:54:44.876Z,100865.04
2018-11-01T20:59:50.209Z,100867.80
2018-11-01T21:04:55.189Z,100858.59
2018-11-01T21:09:59.696Z,100861.48
2018-11-01T21:15:03.489Z,100870.98
2018-11-01T21:20:06.806Z,100880.59
2018-11-01T21:25:10.331Z,100874.95
2018-11-01T21:30:15.435Z,100887.48
2018-11-01T21:35:18.878Z,100879.59
2018-11-01T21:40:21.988Z,100889.66
2018-11-01T21:45:25.287Z,100893.36
2018-11-01T21:50:28.483Z,100909.06
2018-11-01T21:55:31.702Z,100915.96
2018-11-01T22:00:34.876Z,100938.22
2018-11-01T22:05:38.220Z,100945.69
2018-11-01T22:10:41.500Z,100952.61
2018-11-01T22:15:44.964Z,100967.04
2018-11-01T22:20:48.294Z,100973.47
2018-11-01T22:25:51.498Z,100982.89
2018-11-01T22:30:54.787Z,101005.52
2018-11-01T22:35:58.198Z,101008.91
2018-11-01T22:41:01.363Z,101024.66
2018-11-01T22:46:04.669Z,101033.11
2018-11-01T22:51:08.823Z,101040.09
2018-11-01T22:56:12.011Z,101061.30
2018-11-01T23:01:15.425Z,101068.98
2018-11-01T23:06:18.836Z,101090.17
2018-11-01T23:11:22.060Z,101085.36
2018-11-01T23:16:25.272Z,101093.91
2018-11-01T23:21:28.419Z,101092.30
2018-11-01T23:26:31.636Z,101102.91
2018-11-01T23:31:34.795Z,101112.63
2018-11-01T23:36:38.086Z,101121.83
2018-11-01T23:41:42.260Z,101117.94
2018-11-01T23:46:45.473Z,101122.75
2018-11-01T23:51:48.736Z,101159.25
2018-11-01T23:56:51.938Z,101189.63
